Sunday, January 21, 2018, 3:39 PM EST
Back to Local

KESN, Easton / Newman Field

Location: Easton, MD, United States Lat: 38.8
Local Time: 3:39 PM EST (20:39 GMT) Lon: -76.067
Time Zone: US/Eastern Elev: 72 ft

Show me the last for .
Show Decoded

2018-01-21 14:50 METAR KESN 211950Z 17005KT 10SM SCT049 15/03 A3020 =
2018-01-21 13:50 METAR KESN 211850Z 16006KT 10SM SCT049 14/02 A3020 =
2018-01-21 12:45 METAR KESN 211745Z 00000KT 10SM BKN049 12/02 A3023 =
2018-01-21 11:50 METAR KESN 211650Z 14003KT 10SM BKN049 11/02 A3025 =
2018-01-21 10:50 METAR KESN 211550Z 00000KT 10SM BKN049 08/02 A3027 =
2018-01-21 09:45 METAR KESN 211445Z 00000KT 10SM OVC044 06/02 A3026 =
2018-01-21 08:50 METAR KESN 211350Z 00000KT 10SM OVC040 04/02 A3024 =
2018-01-21 07:47 METAR KESN 211247Z 00000KT 10SM OVC042 01/M01 A3023 =
2018-01-21 06:53 METAR KESN 211153Z 00000KT 10SM SKC 00/M03 A3022 =
2018-01-21 05:47 METAR KESN 211047Z 00000KT 10SM SKC 00/M03 A3020 =
2018-01-21 05:06 METAR KESN 211006Z AUTO 00000KT 10SM CLR 00/M03 A3018 RMK AO2 T00011026 =
2018-01-21 04:48 METAR KESN 210948Z AUTO 00000KT 10SM CLR 00/M03 A3018 RMK AO2 T00001026 =
2018-01-21 04:27 METAR KESN 210928Z AUTO 00000KT 10SM CLR 00/M03 A3018 RMK AO2 T10031030 =
2018-01-21 04:08 METAR KESN 210908Z AUTO 00000KT 10SM CLR 00/M03 A3017 RMK AO2 T10021035 =
2018-01-21 03:48 METAR KESN 210848Z AUTO 00000KT 10SM CLR 00/M02 A3016 RMK AO2 T00001025 =
2018-01-21 03:27 METAR KESN 210828Z AUTO 00000KT 10SM CLR 00/M03 A3016 RMK AO2 T00041026 =
2018-01-21 03:07 METAR KESN 210808Z AUTO 00000KT 10SM CLR 00/M03 A3016 RMK AO2 T00001030 =
2018-01-21 02:48 METAR KESN 210748Z AUTO 00000KT 10SM CLR 00/M03 A3016 RMK AO2 T00011030 =
2018-01-21 02:27 METAR KESN 210728Z AUTO 00000KT 10SM CLR 01/M03 A3015 RMK AO2 T00091027 =
2018-01-21 02:06 METAR KESN 210708Z AUTO 00000KT 10SM CLR 01/M03 A3015 RMK AO2 T00051031 =
2018-01-21 01:48 METAR KESN 210648Z AUTO 00000KT 10SM CLR 01/M03 A3014 RMK AO2 T00051032 =
2018-01-21 01:28 METAR KESN 210628Z AUTO 00000KT 10SM CLR 01/M03 A3014 RMK AO2 T00141029 =
2018-01-21 01:06 METAR KESN 210608Z AUTO 00000KT 10SM CLR 01/M03 A3013 RMK AO2 T00081031 =
2018-01-21 00:48 METAR KESN 210548Z AUTO 00000KT 10SM CLR 01/M03 A3013 RMK AO2 T00131028 =
2018-01-21 00:27 METAR KESN 210528Z AUTO 00000KT 10SM CLR 02/M03 A3013 RMK AO2 T00151028 =
2018-01-21 00:06 METAR KESN 210508Z AUTO 00000KT 10SM CLR 01/M03 A3013 RMK AO2 T00071035 =
2018-01-20 23:48 METAR KESN 210448Z AUTO 00000KT 10SM CLR 02/M03 A3013 RMK AO2 T00161030 =
2018-01-20 23:27 METAR KESN 210428Z AUTO 00000KT 10SM CLR 02/M03 A3013 RMK AO2 T00161031 =
2018-01-20 23:06 METAR KESN 210408Z AUTO 00000KT 10SM CLR 01/M03 A3013 RMK AO2 T00101032 =
2018-01-20 22:48 METAR KESN 210348Z AUTO 19005KT 10SM CLR 02/M03 A3013 RMK AO2 T00181031 =
2018-01-20 22:27 METAR KESN 210328Z AUTO 00000KT 10SM CLR 02/M03 A3013 RMK AO2 T00181031 =
2018-01-20 21:50 METAR KESN 210250Z 00000KT 10SM SCT050 03/M03 A3012 =
2018-01-20 20:52 METAR KESN 210152Z 00000KT 10SM SCT060 05/M03 A3011 =
2018-01-20 19:50 METAR KESN 210050Z 00000KT 10SM SCT060 05/M03 A3009 =
2018-01-20 18:50 METAR KESN 202350Z 21004KT 10SM SCT060 08/M03 A3008 =
2018-01-20 17:56 METAR KESN 202256Z 18004KT 10SM SCT060 10/M03 A3005 =
2018-01-20 16:50 METAR KESN 202150Z 23004KT 10SM SCT080 11/M04 A3004 =
2018-01-20 15:54 METAR KESN 202054Z 23006KT 10SM SCT100 13/M06 A3002 =

Support USWX by starting your Amazon purchase here.